Time;durP1;ratioP1;P1;durP2;ratioP2;P2;SDS_P1;SDS_P2;PMS_P1;PMS_P2;Temp;Humidity;BMP_temperature;BMP_pressure;BME280_temperature;BME280_humidity;BME280_pressure;Samples;Min_cycle;Max_cycle;Signal;HPM_P1;HPM_P2
2022/10/23 00:01:25;;;;;;;4.00;1.52;;;21.50;52.10;20.60;101096.00;;;;5057839;28;20056;-72
2022/10/23 00:03:59;;;;;;;2.70;1.48;;;21.50;52.00;20.60;101099.00;;;;5089999;28;20447;-72
2022/10/23 00:06:25;;;;;;;3.10;1.48;;;21.50;52.10;20.60;101101.00;;;;5092289;28;20172;-73
2022/10/23 00:08:51;;;;;;;1.60;1.23;;;21.50;52.20;20.60;101095.00;;;;5057532;28;20063;-72
2022/10/23 00:11:20;;;;;;;2.40;1.50;;;21.50;52.20;20.60;101092.00;;;;5091996;28;20446;-73
2022/10/23 00:13:46;;;;;;;2.63;1.50;;;21.50;52.10;20.60;101089.00;;;;5091762;28;20983;-72
2022/10/23 00:16:12;;;;;;;3.92;2.35;;;21.50;52.10;20.60;101093.00;;;;5091606;28;20481;-73
2022/10/23 00:18:37;;;;;;;4.23;1.90;;;21.50;52.10;20.60;101095.00;;;;5090337;28;20032;-72
2022/10/23 00:21:04;;;;;;;2.97;1.50;;;21.50;52.10;20.60;101096.00;;;;5073261;28;20027;-72
2022/10/23 00:23:30;;;;;;;;;;;21.50;52.10;20.60;101094.00;;;;5092985;28;20438;-72
2022/10/23 00:25:56;;;;;;;2.28;1.38;;;21.50;52.20;20.60;101095.00;;;;5091431;28;19912;-72
2022/10/23 00:28:21;;;;;;;2.50;1.53;;;21.60;52.10;20.60;101094.00;;;;5074576;28;20039;-72
2022/10/23 00:30:47;;;;;;;2.90;1.33;;;21.50;52.00;20.60;101089.00;;;;5091696;28;20398;-72
2022/10/23 00:33:13;;;;;;;1.83;1.40;;;21.50;52.10;20.60;101091.00;;;;5091074;28;20561;-72
2022/10/23 00:35:40;;;;;;;1.93;1.30;;;21.50;52.00;20.60;101086.00;;;;5096509;28;20552;-72
2022/10/23 00:38:05;;;;;;;;;;;21.40;52.00;20.60;101092.00;;;;5092068;28;20024;-72
2022/10/23 00:40:31;;;;;;;2.67;1.60;;;21.50;52.20;20.50;101096.00;;;;5091780;28;20333;-73
2022/10/23 00:42:57;;;;;;;2.97;1.50;;;21.50;52.00;20.60;101096.00;;;;5091242;28;20077;-73
2022/10/23 00:45:25;;;;;;;3.37;1.50;;;21.50;52.00;20.60;101090.00;;;;5092009;28;20105;-72
2022/10/23 00:47:51;;;;;;;3.28;1.20;;;21.50;52.00;20.50;101091.00;;;;5090898;28;20039;-72
2022/10/23 00:50:17;;;;;;;3.83;1.50;;;21.40;52.70;20.60;101090.00;;;;5056438;28;20027;-72
2022/10/23 00:52:49;;;;;;;2.80;1.70;;;21.50;52.10;20.60;101088.00;;;;5056108;28;20869;-72
2022/10/23 00:55:15;;;;;;;4.90;1.33;;;21.50;52.10;20.50;101089.00;;;;5089859;28;20024;-72
2022/10/23 00:57:42;;;;;;;2.00;1.60;;;21.40;52.00;20.60;101086.00;;;;5072641;28;20501;-72
2022/10/23 01:00:16;;;;;;;2.78;1.58;;;21.40;52.10;20.60;101079.00;;;;5072511;28;20063;-72
2022/10/23 01:02:41;;;;;;;3.08;1.63;;;21.40;52.00;20.60;101092.00;;;;5072952;28;20047;-72
2022/10/23 01:05:08;;;;;;;1.93;1.33;;;21.50;52.00;20.50;101084.00;;;;5091694;28;20072;-72
2022/10/23 01:07:55;;;;;;;2.38;1.60;;;21.40;52.00;20.60;101095.00;;;;5070577;28;20532;-72
2022/10/23 01:10:39;;;;;;;2.22;1.45;;;21.40;52.00;20.50;101095.00;;;;5073730;28;20060;-72
2022/10/23 01:13:22;;;;;;;2.30;1.42;;;21.50;52.00;20.50;101109.00;;;;5042814;28;20520;-72
2022/10/23 01:16:17;;;;;;;1.90;1.48;;;21.50;52.00;20.50;101105.00;;;;5074435;28;20023;-72
2022/10/23 01:19:03;;;;;;;2.22;1.60;;;21.50;52.00;20.50;101109.00;;;;5059072;28;20028;-72
2022/10/23 01:21:35;;;;;;;2.83;1.67;;;21.50;52.00;20.50;101106.00;;;;5056700;28;20028;-72
2022/10/23 01:24:18;;;;;;;3.03;1.77;;;21.50;52.00;20.50;101094.00;;;;5058257;28;20244;-72
2022/10/23 01:27:18;;;;;;;2.60;1.58;;;21.50;52.10;20.50;101095.00;;;;5073232;28;20028;-72
2022/10/23 01:30:02;;;;;;;2.83;1.92;;;21.40;52.00;20.50;101090.00;;;;5076226;28;20124;-72
2022/10/23 01:32:43;;;;;;;2.10;1.80;;;21.40;52.00;20.50;101083.00;;;;5057156;28;20120;-73
2022/10/23 01:35:36;;;;;;;3.30;1.92;;;21.40;52.00;20.50;101083.00;;;;5075298;28;20423;-72
2022/10/23 01:38:28;;;;;;;1.98;1.58;;;21.40;52.00;20.50;101075.00;;;;5058802;28;20440;-72
2022/10/23 01:41:28;;;;;;;2.08;1.60;;;21.40;51.90;20.50;101079.00;;;;5057856;28;20024;-72
2022/10/23 01:44:23;;;;;;;2.08;1.50;;;21.40;51.90;20.50;101073.00;;;;5076749;28;20168;-73
2022/10/23 01:46:49;;;;;;;1.83;1.48;;;21.40;51.90;20.50;101068.00;;;;5053525;28;20126;-72
2022/10/23 01:49:15;;;;;;;4.47;1.70;;;21.40;51.90;20.50;101078.00;;;;5056876;28;20370;-72
2022/10/23 01:51:45;;;;;;;2.15;1.45;;;21.40;51.90;20.50;101068.00;;;;5055628;28;21048;-72
2022/10/23 01:54:12;;;;;;;1.80;1.58;;;21.40;51.90;20.50;101064.00;;;;5055974;28;20028;-72
2022/10/23 01:56:39;;;;;;;1.98;1.55;;;21.40;51.90;20.50;101071.00;;;;5055327;28;20085;-73
2022/10/23 01:59:09;;;;;;;3.08;1.73;;;21.40;51.90;20.50;101073.00;;;;5073977;28;20028;-72
2022/10/23 02:01:35;;;;;;;1.80;1.50;;;21.40;51.80;20.50;101061.00;;;;5071584;28;20032;-72
2022/10/23 02:04:01;;;;;;;1.87;1.60;;;21.40;51.90;20.50;101065.00;;;;5074118;28;20085;-72
2022/10/23 02:06:27;;;;;;;3.15;1.50;;;21.40;51.80;20.50;101059.00;;;;5055052;28;20028;-72
2022/10/23 02:08:53;;;;;;;2.03;1.50;;;21.40;51.80;20.50;101061.00;;;;5072842;28;20032;-72
2022/10/23 02:11:20;;;;;;;2.23;1.80;;;21.40;51.80;20.50;101053.00;;;;5072760;28;20111;-72
2022/10/23 02:14:23;;;;;;;2.95;1.90;;;21.40;51.80;20.50;101057.00;;;;5073215;28;20029;-72
2022/10/23 02:16:53;;;;;;;3.72;1.80;;;21.40;51.80;20.50;101049.00;;;;5060012;28;20059;-72
2022/10/23 02:20:03;;;;;;;3.38;1.40;;;21.40;51.80;20.50;101041.00;;;;5073789;28;20062;-72
2022/10/23 02:22:33;;;;;;;1.98;1.45;;;21.40;51.80;20.50;101042.00;;;;5074124;28;20114;-72
2022/10/23 02:25:07;;;;;;;1.98;1.50;;;21.30;51.70;20.50;101037.00;;;;5074108;28;20032;-72
2022/10/23 02:28:01;;;;;;;3.10;1.60;;;21.40;51.70;20.50;101039.00;;;;5070654;28;20032;-72
2022/10/23 02:30:26;;;;;;;1.63;1.52;;;21.40;51.70;20.50;101038.00;;;;5057070;28;20024;-72
2022/10/23 02:32:53;;;;;;;3.00;1.70;;;21.30;51.70;20.40;101040.00;;;;5071847;28;20085;-72
2022/10/23 02:35:19;;;;;;;;;;;21.30;51.70;20.40;101035.00;;;;5055728;28;20081;-72
2022/10/23 02:37:56;;;;;;;3.47;1.75;;;21.40;51.90;20.40;101027.00;;;;5089783;28;19920;-72
2022/10/23 02:40:23;;;;;;;1.98;1.40;;;21.40;51.70;20.40;101021.00;;;;5075616;28;20090;-72
2022/10/23 02:43:01;;;;;;;2.30;1.85;;;21.30;51.60;20.40;101021.00;;;;5072831;28;20032;-72
2022/10/23 02:45:40;;;;;;;3.67;1.83;;;21.40;51.70;20.40;101016.00;;;;5073106;28;20465;-72
2022/10/23 02:48:19;;;;;;;1.98;1.42;;;21.40;51.70;20.40;101013.00;;;;5055833;28;20028;-72
2022/10/23 02:51:26;;;;;;;2.78;1.30;;;21.40;51.70;20.40;101000.00;;;;5055203;28;20354;-72
2022/10/23 02:54:17;;;;;;;3.15;1.83;;;21.40;51.70;20.40;100998.00;;;;5071547;28;20034;-72
2022/10/23 02:56:51;;;;;;;2.53;1.90;;;21.40;51.70;20.40;100997.00;;;;5055688;28;20229;-72
2022/10/23 02:59:34;;;;;;;1.60;1.50;;;21.30;51.60;20.40;100994.00;;;;5088894;28;20058;-72
2022/10/23 03:02:49;;;;;;;3.47;1.63;;;21.30;51.60;20.40;100984.00;;;;5070019;28;20020;-72
2022/10/23 03:05:19;;;;;;;2.20;2.00;;;21.30;51.60;20.40;100975.00;;;;4989325;28;20030;-72
2022/10/23 03:07:45;;;;;;;3.15;1.92;;;21.30;51.70;20.40;100984.00;;;;5057040;28;20390;-72
2022/10/23 03:10:11;;;;;;;1.67;1.30;;;21.30;51.60;20.40;100979.00;;;;5072751;28;20036;-72
2022/10/23 03:12:36;;;;;;;3.63;1.87;;;21.30;51.70;20.40;100986.00;;;;5088783;28;20032;-72
2022/10/23 03:15:04;;;;;;;1.90;1.60;;;21.30;51.70;20.40;100981.00;;;;5073704;28;20538;-72
2022/10/23 03:17:29;;;;;;;3.10;1.83;;;21.30;51.60;20.40;100979.00;;;;5088765;28;20047;-72
2022/10/23 03:19:55;;;;;;;10.83;1.57;;;21.30;51.60;20.40;100972.00;;;;5089481;28;20036;-72
2022/10/23 03:22:21;;;;;;;2.50;1.77;;;21.30;51.60;20.40;100978.00;;;;5092932;28;20110;-72
2022/10/23 03:24:47;;;;;;;2.03;1.53;;;21.30;51.60;20.40;100988.00;;;;5093048;28;20051;-72
2022/10/23 03:27:12;;;;;;;2.47;1.70;;;21.20;51.60;20.40;100985.00;;;;5093055;28;20107;-72
2022/10/23 03:29:38;;;;;;;2.40;1.40;;;21.30;51.60;20.40;100981.00;;;;5093108;28;20124;-72
2022/10/23 03:32:04;;;;;;;3.30;1.90;;;21.30;51.60;20.40;100986.00;;;;5092950;28;20048;-73
2022/10/23 03:34:30;;;;;;;1.40;1.30;;;21.30;51.60;20.40;100985.00;;;;5092644;28;20385;-72
2022/10/23 03:36:55;;;;;;;2.20;1.50;;;21.30;51.60;20.40;100987.00;;;;5092201;28;20054;-72
2022/10/23 03:39:21;;;;;;;4.23;1.47;;;21.30;51.60;20.40;100983.00;;;;5093280;28;20103;-72
2022/10/23 03:41:47;;;;;;;2.57;1.60;;;21.30;51.50;20.40;100990.00;;;;5074255;28;20568;-72
2022/10/23 03:44:13;;;;;;;2.05;1.40;;;21.30;51.50;20.40;100992.00;;;;5075269;28;20051;-72
2022/10/23 03:46:39;;;;;;;2.90;1.57;;;21.30;51.50;20.40;100988.00;;;;5092207;28;20024;-72
2022/10/23 03:49:05;;;;;;;1.67;1.55;;;21.30;51.50;20.40;100984.00;;;;5092334;28;20134;-72
2022/10/23 03:51:31;;;;;;;2.23;1.57;;;21.30;51.50;20.40;100976.00;;;;5091241;28;20048;-72
2022/10/23 03:53:56;;;;;;;3.13;1.63;;;21.30;51.50;20.40;100968.00;;;;5092468;28;20020;-72
2022/10/23 03:56:22;;;;;;;2.83;1.23;;;21.30;51.50;20.40;100971.00;;;;5092446;28;20111;-72
2022/10/23 03:58:48;;;;;;;3.87;1.93;;;21.30;51.50;20.40;100971.00;;;;5092489;28;20095;-72
2022/10/23 04:01:14;;;;;;;2.78;1.52;;;21.30;51.50;20.40;100973.00;;;;5075996;28;20059;-72
2022/10/23 04:03:39;;;;;;;3.60;1.60;;;21.30;51.50;20.40;100974.00;;;;5091575;28;20028;-72
2022/10/23 04:06:06;;;;;;;2.73;1.30;;;21.30;51.50;20.40;100968.00;;;;5075227;28;20746;-72
2022/10/23 04:08:31;;;;;;;3.78;1.40;;;21.30;51.50;20.40;100968.00;;;;5092545;28;20024;-72
2022/10/23 04:10:57;;;;;;;2.00;1.27;;;21.30;51.50;20.40;100958.00;;;;5092588;28;20061;-72
2022/10/23 04:13:23;;;;;;;3.43;1.53;;;21.30;51.50;20.40;100956.00;;;;5074841;28;20055;-72
2022/10/23 04:15:49;;;;;;;1.47;1.30;;;21.30;51.50;20.40;100954.00;;;;5091639;28;20063;-72
2022/10/23 04:18:15;;;;;;;;;;;21.30;51.50;20.40;100947.00;;;;5092980;28;20076;-72
2022/10/23 04:20:41;;;;;;;1.50;1.00;;;21.30;51.60;20.40;100950.00;;;;5092444;28;20266;-72
2022/10/23 04:23:06;;;;;;;3.07;1.40;;;21.30;51.40;20.40;100954.00;;;;5091548;28;20023;-72
2022/10/23 04:25:32;;;;;;;1.70;1.37;;;21.30;51.40;20.40;100943.00;;;;5092420;28;20103;-72
2022/10/23 04:27:58;;;;;;;2.50;1.50;;;21.30;51.40;20.40;100945.00;;;;5073769;28;20028;-72
2022/10/23 04:30:24;;;;;;;1.47;1.13;;;21.30;51.40;20.40;100949.00;;;;5074735;28;20084;-72
2022/10/23 04:32:50;;;;;;;3.00;1.77;;;21.30;51.40;20.40;100947.00;;;;5067015;28;20122;-72
2022/10/23 04:35:17;;;;;;;1.60;1.00;;;21.30;51.40;20.40;100938.00;;;;5089971;28;20036;-72
2022/10/23 04:37:43;;;;;;;2.28;1.38;;;21.20;51.40;20.40;100943.00;;;;5074291;28;20495;-72
2022/10/23 04:40:09;;;;;;;;;;;21.20;51.40;20.30;100933.00;;;;5074377;28;20044;-72
2022/10/23 04:42:35;;;;;;;2.45;1.40;;;21.30;51.60;20.30;100931.00;;;;5091668;28;19912;-72
2022/10/23 04:45:00;;;;;;;3.30;1.37;;;21.30;51.40;20.30;100925.00;;;;5090819;28;20051;-72
2022/10/23 04:47:26;;;;;;;2.30;1.37;;;21.20;51.40;20.30;100927.00;;;;5073767;28;20038;-72
2022/10/23 04:49:52;;;;;;;2.20;1.40;;;21.30;51.40;20.30;100939.00;;;;5091517;28;20107;-72
2022/10/23 04:52:18;;;;;;;1.53;1.30;;;21.20;51.40;20.30;100936.00;;;;5090973;28;20106;-72
2022/10/23 04:54:43;;;;;;;3.00;1.73;;;21.30;51.40;20.30;100937.00;;;;5092427;28;20058;-72
2022/10/23 04:57:09;;;;;;;1.20;1.03;;;21.20;51.40;20.40;100941.00;;;;5073298;28;20119;-72
2022/10/23 04:59:35;;;;;;;4.10;1.20;;;21.20;51.50;20.30;100943.00;;;;5082461;28;20115;-72
2022/10/23 05:02:01;;;;;;;2.57;1.13;;;21.20;51.40;20.30;100934.00;;;;5090273;28;20036;-72
2022/10/23 05:04:26;;;;;;;1.47;1.00;;;21.20;51.40;20.40;100928.00;;;;5091543;28;20114;-72
2022/10/23 05:06:52;;;;;;;2.20;1.47;;;21.30;51.50;20.30;100926.00;;;;5091008;28;20111;-72
2022/10/23 05:09:18;;;;;;;2.90;1.40;;;21.30;51.50;20.30;100923.00;;;;5091044;28;20436;-72
2022/10/23 05:11:44;;;;;;;1.40;1.20;;;21.20;51.40;20.30;100912.00;;;;5090564;28;20145;-72
2022/10/23 05:14:09;;;;;;;1.97;1.23;;;21.20;51.40;20.40;100910.00;;;;5073476;28;20044;-72
2022/10/23 05:16:42;;;;;;;2.07;1.23;;;21.30;51.50;20.40;100903.00;;;;5088315;28;20123;-72
2022/10/23 05:19:09;;;;;;;2.50;1.35;;;21.20;51.40;20.40;100907.00;;;;5074041;28;20096;-72
2022/10/23 05:21:35;;;;;;;2.58;1.05;;;21.30;51.40;20.40;100903.00;;;;5077427;28;20119;-72
2022/10/23 05:24:00;;;;;;;1.38;0.98;;;21.30;51.40;20.40;100892.00;;;;5073701;28;20029;-72
2022/10/23 05:26:27;;;;;;;2.63;1.00;;;21.20;51.40;20.40;100894.00;;;;5072284;28;20032;-72
2022/10/23 05:28:53;;;;;;;3.95;0.93;;;21.30;51.40;20.40;100890.00;;;;5073825;28;20024;-72
2022/10/23 05:31:19;;;;;;;4.00;1.60;;;21.20;51.40;20.40;100899.00;;;;5089659;28;20039;-72
2022/10/23 05:33:45;;;;;;;3.23;1.30;;;21.30;51.40;20.40;100891.00;;;;5090468;28;20111;-72
2022/10/23 05:36:11;;;;;;;3.80;1.40;;;21.30;51.40;20.40;100879.00;;;;5071462;28;20044;-72
2022/10/23 05:38:37;;;;;;;2.65;1.23;;;21.30;51.40;20.40;100888.00;;;;5072905;28;20035;-72
2022/10/23 05:41:02;;;;;;;2.00;1.47;;;21.30;51.40;20.40;100885.00;;;;5052595;28;20397;-72
2022/10/23 05:43:30;;;;;;;1.90;1.10;;;21.20;51.40;20.40;100883.00;;;;5090339;28;20095;-72
2022/10/23 05:45:56;;;;;;;1.95;1.13;;;21.30;51.40;20.40;100889.00;;;;5081166;28;20460;-72
2022/10/23 05:48:22;;;;;;;;;;;21.20;52.00;20.40;100889.00;;;;5088343;28;20437;-72
2022/10/23 05:50:48;;;;;;;2.08;1.05;;;21.30;51.50;20.40;100887.00;;;;5088755;28;19919;-72
2022/10/23 05:53:13;;;;;;;2.10;1.17;;;21.30;51.40;20.30;100883.00;;;;5089876;28;20484;-72
2022/10/23 05:55:39;;;;;;;1.77;1.27;;;21.30;51.40;20.40;100886.00;;;;5073584;28;20380;-72
2022/10/23 05:58:05;;;;;;;3.60;1.13;;;21.30;51.30;20.40;100881.00;;;;5084866;28;20177;-72
2022/10/23 06:00:31;;;;;;;3.53;1.40;;;21.30;51.30;20.30;100876.00;;;;5084203;28;20139;-72
2022/10/23 06:03:00;;;;;;;2.03;1.05;;;21.30;51.30;20.40;100871.00;;;;5088256;28;20023;-72
2022/10/23 06:05:26;;;;;;;2.40;0.98;;;21.30;51.40;20.40;100868.00;;;;5068641;28;20063;-72
2022/10/23 06:07:51;;;;;;;4.30;1.27;;;21.30;51.40;20.40;100867.00;;;;5092984;28;20472;-72
2022/10/23 06:10:17;;;;;;;2.30;1.10;;;21.20;51.30;20.40;100871.00;;;;5089128;28;20119;-72
2022/10/23 06:12:43;;;;;;;4.13;1.20;;;21.30;51.30;20.40;100870.00;;;;5091746;28;20130;-72
2022/10/23 06:15:09;;;;;;;1.73;0.90;;;21.30;51.40;20.40;100861.00;;;;5089950;28;20027;-72
2022/10/23 06:17:35;;;;;;;1.73;0.85;;;21.30;51.40;20.40;100861.00;;;;5092489;28;20027;-72
2022/10/23 06:20:01;;;;;;;1.53;0.80;;;21.20;51.30;20.40;100864.00;;;;5089099;28;20047;-72
2022/10/23 06:22:28;;;;;;;1.20;0.90;;;21.30;51.40;20.40;100863.00;;;;5088633;28;20134;-72
2022/10/23 06:24:54;;;;;;;3.85;1.63;;;21.30;51.30;20.40;100865.00;;;;5087603;28;20561;-72
2022/10/23 06:27:19;;;;;;;1.77;1.00;;;21.30;51.30;20.40;100868.00;;;;5088151;28;20032;-72
2022/10/23 06:29:45;;;;;;;1.90;1.10;;;21.30;51.40;20.40;100860.00;;;;5087376;28;20486;-72
2022/10/23 06:32:11;;;;;;;2.85;1.08;;;21.30;51.30;20.40;100867.00;;;;5048267;28;20035;-72
2022/10/23 06:34:37;;;;;;;2.13;1.13;;;21.30;51.30;20.40;100865.00;;;;5084029;28;20034;-72
2022/10/23 06:37:03;;;;;;;3.47;1.03;;;21.30;51.30;20.40;100864.00;;;;5082055;28;20119;-72
2022/10/23 06:39:28;;;;;;;1.70;1.13;;;21.30;51.30;20.40;100865.00;;;;5083944;28;20034;-74
2022/10/23 06:41:54;;;;;;;2.33;1.10;;;21.30;51.30;20.40;100856.00;;;;5088813;28;20141;-74
2022/10/23 06:44:20;;;;;;;1.90;1.00;;;21.30;51.30;20.40;100856.00;;;;5090104;28;20115;-73
2022/10/23 06:46:46;;;;;;;1.53;1.10;;;21.30;51.30;20.40;100858.00;;;;5053480;28;20031;-74
2022/10/23 06:49:14;;;;;;;3.03;1.20;;;21.30;51.40;20.40;100858.00;;;;5089520;28;20062;-74
2022/10/23 06:51:40;;;;;;;1.45;1.00;;;21.30;51.30;20.40;100864.00;;;;5071822;28;20039;-74
2022/10/23 06:54:06;;;;;;;1.77;1.20;;;21.30;51.30;20.40;100855.00;;;;5087003;28;20047;-74
2022/10/23 06:56:31;;;;;;;5.17;1.10;;;21.30;51.30;20.40;100855.00;;;;5088001;28;20543;-73
2022/10/23 06:58:57;;;;;;;1.97;1.17;;;21.30;51.30;20.40;100860.00;;;;5091029;28;20162;-73
2022/10/23 07:01:23;;;;;;;3.17;1.48;;;21.20;51.30;20.40;100863.00;;;;5076302;28;20468;-74
2022/10/23 07:03:49;;;;;;;2.92;1.10;;;21.40;51.40;20.40;100859.00;;;;5095672;28;20021;-73
2022/10/23 07:06:15;;;;;;;2.50;1.07;;;21.30;51.30;20.40;100848.00;;;;5095513;28;20081;-73
2022/10/23 07:08:40;;;;;;;3.10;1.37;;;21.30;51.30;20.40;100838.00;;;;5093395;28;20112;-74
2022/10/23 07:11:08;;;;;;;2.07;1.10;;;21.30;51.30;20.40;100839.00;;;;5093597;28;20064;-73
2022/10/23 07:13:34;;;;;;;3.03;1.25;;;21.30;51.30;20.40;100843.00;;;;5091698;28;20129;-74
2022/10/23 07:16:18;;;;;;;2.33;1.08;;;21.30;51.30;20.40;100855.00;;;;5071420;28;20098;-73
2022/10/23 07:18:45;;;;;;;3.00;0.95;;;21.40;51.40;20.40;100853.00;;;;5090303;28;20420;-73
2022/10/23 07:21:10;;;;;;;2.15;0.93;;;21.40;51.40;20.40;100864.00;;;;5096525;28;20051;-73
2022/10/23 07:23:36;;;;;;;1.53;0.90;;;21.30;51.30;20.40;100863.00;;;;5069028;28;20044;-73
2022/10/23 07:26:15;;;;;;;1.53;0.77;;;21.30;51.30;20.40;100857.00;;;;5074542;28;20031;-73
2022/10/23 07:28:42;;;;;;;1.55;1.00;;;21.30;51.30;20.40;100852.00;;;;5080224;28;20038;-73
2022/10/23 07:31:08;;;;;;;2.08;1.00;;;21.30;51.30;20.40;100836.00;;;;5074597;28;20028;-73
2022/10/23 07:33:34;;;;;;;1.27;0.73;;;21.30;51.30;20.40;100844.00;;;;5089159;28;20032;-73
2022/10/23 07:36:02;;;;;;;2.00;1.27;;;21.40;51.40;20.40;100833.00;;;;5090327;28;20503;-74
2022/10/23 07:38:28;;;;;;;1.95;1.00;;;21.30;51.40;20.40;100834.00;;;;5086909;28;21227;-73
2022/10/23 07:40:56;;;;;;;1.70;1.13;;;21.30;51.30;20.40;100830.00;;;;5089740;28;20036;-74
2022/10/23 07:43:22;;;;;;;2.30;0.90;;;21.30;51.30;20.40;100823.00;;;;5068344;28;20081;-73
2022/10/23 07:45:48;;;;;;;2.80;1.00;;;21.40;51.40;20.40;100831.00;;;;5088788;28;20040;-73
2022/10/23 07:48:14;;;;;;;2.30;1.33;;;21.30;51.30;20.40;100837.00;;;;5057006;28;20047;-73
2022/10/23 07:50:40;;;;;;;4.45;0.70;;;21.30;51.30;20.40;100827.00;;;;5091383;28;21227;-73
2022/10/23 07:53:06;;;;;;;1.50;0.87;;;21.30;51.30;20.40;100835.00;;;;5087253;28;21228;-73
2022/10/23 07:55:32;;;;;;;3.70;1.33;;;21.40;51.40;20.40;100835.00;;;;5086913;28;20067;-73
2022/10/23 07:57:57;;;;;;;1.60;1.10;;;21.40;51.40;20.40;100839.00;;;;5088593;28;20165;-73
2022/10/23 08:00:23;;;;;;;1.13;0.87;;;21.40;51.40;20.40;100831.00;;;;5092519;28;20153;-74
2022/10/23 08:02:49;;;;;;;2.83;1.20;;;21.40;51.40;20.40;100833.00;;;;5092454;28;20115;-73
2022/10/23 08:05:18;;;;;;;8.77;1.40;;;21.40;51.40;20.40;100838.00;;;;5089037;28;20761;-73
2022/10/23 08:07:44;;;;;;;6.18;1.10;;;21.40;51.40;20.30;100836.00;;;;5066628;28;20040;-74
2022/10/23 08:10:10;;;;;;;9.63;2.47;;;21.40;52.10;20.30;100843.00;;;;5088491;28;20065;-73
2022/10/23 08:12:36;;;;;;;72.53;8.37;;;21.40;51.50;20.30;100825.00;;;;5084723;28;20119;-73
2022/10/23 08:15:03;;;;;;;128.23;12.73;;;21.30;51.40;20.30;100823.00;;;;5072026;28;20355;-72
2022/10/23 08:17:29;;;;;;;117.40;10.10;;;21.40;51.50;20.20;100819.00;;;;5068998;28;20089;-73
2022/10/23 08:19:54;;;;;;;92.20;10.73;;;21.30;51.60;20.30;100816.00;;;;5088873;28;20381;-73
2022/10/23 08:22:20;;;;;;;131.03;12.10;;;21.30;51.60;20.30;100825.00;;;;5090831;28;20111;-75
2022/10/23 08:24:46;;;;;;;107.60;11.37;;;21.30;51.60;20.30;100835.00;;;;5091438;28;20046;-79
2022/10/23 08:27:12;;;;;;;85.63;8.90;;;21.20;51.70;20.30;100836.00;;;;5087502;28;20103;-76
2022/10/23 08:29:37;;;;;;;71.33;8.03;;;21.30;51.70;20.30;100829.00;;;;5071958;28;20115;-77
2022/10/23 08:32:03;;;;;;;68.10;7.90;;;21.20;51.70;20.30;100828.00;;;;5088913;28;20099;-73
2022/10/23 08:34:30;;;;;;;57.30;7.13;;;21.20;51.70;20.30;100821.00;;;;5090609;28;20020;-72
2022/10/23 08:36:55;;;;;;;51.53;5.43;;;21.30;51.80;20.30;100820.00;;;;5090853;28;20028;-72
2022/10/23 08:39:21;;;;;;;51.70;7.20;;;21.20;51.70;20.30;100809.00;;;;5072624;28;20062;-73
2022/10/23 08:41:50;;;;;;;54.83;6.27;;;21.30;51.70;20.40;100808.00;;;;5090107;28;20374;-73
2022/10/23 08:44:46;;;;;;;44.45;4.72;;;21.30;51.80;20.40;100799.00;;;;5074821;28;20035;-73
2022/10/23 08:47:42;;;;;;;43.63;4.45;;;21.30;51.70;20.40;100807.00;;;;5072066;28;20110;-72
2022/10/23 08:50:52;;;;;;;37.58;3.75;;;21.30;51.80;20.40;100813.00;;;;5074708;28;20040;-72
2022/10/23 08:53:49;;;;;;;31.13;3.67;;;21.30;51.70;20.40;100800.00;;;;5044588;28;20127;-73
2022/10/23 08:56:28;;;;;;;39.53;3.90;;;21.40;51.80;20.40;100799.00;;;;5062669;28;20114;-72
2022/10/23 08:58:58;;;;;;;27.90;3.88;;;21.40;51.70;20.40;100793.00;;;;5086259;28;20055;-72
2022/10/23 09:01:46;;;;;;;27.92;3.63;;;21.30;51.70;20.40;100789.00;;;;5070056;28;20043;-72
2022/10/23 09:04:13;;;;;;;23.48;3.95;;;21.40;51.70;20.40;100789.00;;;;5068098;28;20028;-71
2022/10/23 09:06:59;;;;;;;21.77;3.28;;;21.40;51.70;20.40;100784.00;;;;5069304;28;20031;-73
2022/10/23 09:10:11;;;;;;;21.92;2.83;;;21.30;51.60;20.40;100785.00;;;;5065957;28;20020;-70
2022/10/23 09:12:38;;;;;;;17.02;2.88;;;21.40;51.70;20.40;100773.00;;;;5090426;28;20127;-71
2022/10/23 09:15:13;;;;;;;;;;;21.40;51.70;20.40;100771.00;;;;5088799;28;20191;-69
2022/10/23 09:17:40;;;;;;;15.75;2.42;;;21.40;51.80;20.40;100775.00;;;;5085031;28;20335;-69
2022/10/23 09:20:26;;;;;;;20.38;2.60;;;21.50;51.70;20.40;100766.00;;;;5050997;28;20121;-69
2022/10/23 09:22:58;;;;;;;16.20;2.83;;;21.40;51.60;20.40;100762.00;;;;5088056;28;20481;-69
2022/10/23 09:25:35;;;;;;;18.08;2.88;;;21.40;51.60;20.40;100754.00;;;;5064880;28;20489;-70
2022/10/23 09:28:01;;;;;;;;;;;21.40;51.60;20.40;100751.00;;;;5070812;28;20476;-69
2022/10/23 09:30:35;;;;;;;9.30;1.90;;;21.40;51.70;20.40;100756.00;;;;5084866;28;19915;-69
2022/10/23 09:33:19;;;;;;;16.00;2.50;;;21.40;51.60;20.40;100747.00;;;;5090277;28;20135;-69
2022/10/23 09:36:12;;;;;;;14.77;1.83;;;21.40;51.60;20.50;100749.00;;;;5088882;28;20027;-69
2022/10/23 09:38:44;;;;;;;13.20;2.97;;;21.40;51.70;20.50;100743.00;;;;5082322;28;20033;-70
2022/10/23 09:41:47;;;;;;;16.10;1.83;;;21.50;51.70;20.50;100743.00;;;;5084476;28;20119;-70
2022/10/23 09:44:21;;;;;;;7.45;1.80;;;21.50;51.70;20.50;100743.00;;;;5042782;28;20098;-70
2022/10/23 09:46:52;;;;;;;11.43;2.70;;;21.40;51.60;20.50;100740.00;;;;5087087;28;20111;-70
2022/10/23 09:49:27;;;;;;;15.48;1.92;;;21.40;51.70;20.50;100741.00;;;;5066703;28;20115;-70
2022/10/23 09:52:11;;;;;;;12.00;1.60;;;21.40;51.70;20.50;100741.00;;;;5081888;28;20035;-70
2022/10/23 09:54:44;;;;;;;13.13;1.88;;;21.50;51.70;20.50;100733.00;;;;5084477;28;20024;-70
2022/10/23 09:57:41;;;;;;;13.13;1.80;;;21.50;51.70;20.50;100722.00;;;;5057229;28;20031;-70
2022/10/23 10:00:13;;;;;;;9.88;1.38;;;21.50;51.70;20.50;100722.00;;;;5082401;28;20382;-70
2022/10/23 10:02:40;;;;;;;8.32;1.50;;;21.50;51.70;20.50;100729.00;;;;5078239;28;20040;-70
2022/10/23 10:05:42;;;;;;;7.00;1.55;;;21.40;51.60;20.50;100721.00;;;;5082918;28;20024;-70
2022/10/23 10:08:29;;;;;;;3.78;1.13;;;21.50;51.70;20.50;100719.00;;;;4963653;28;21627;-70
2022/10/23 10:11:53;;;;;;;5.07;1.30;;;21.50;51.70;20.50;100721.00;;;;5056770;28;20089;-70
2022/10/23 10:14:42;;;;;;;7.63;1.27;;;21.50;51.70;20.50;100724.00;;;;5080910;28;20040;-70
2022/10/23 10:17:34;;;;;;;4.88;1.60;;;21.50;51.60;20.50;100719.00;;;;5086694;28;20428;-72
2022/10/23 10:20:27;;;;;;;3.03;1.02;;;21.50;51.70;20.50;100717.00;;;;5074204;28;20038;-72
2022/10/23 10:23:03;;;;;;;8.95;1.52;;;21.50;51.70;20.50;100712.00;;;;5068226;28;20027;-71
2022/10/23 10:25:39;;;;;;;4.07;1.30;;;21.50;51.70;20.50;100712.00;;;;5048173;28;20032;-72
2022/10/23 10:28:39;;;;;;;5.97;1.40;;;21.50;51.70;20.50;100712.00;;;;5057120;28;20224;-73
2022/10/23 10:31:27;;;;;;;5.15;1.38;;;21.50;51.70;20.50;100705.00;;;;5055106;28;20040;-73
2022/10/23 10:34:00;;;;;;;5.95;1.50;;;21.50;51.70;20.50;100699.00;;;;5085681;28;20034;-76
2022/10/23 10:37:00;;;;;;;4.25;0.95;;;21.60;51.80;20.60;100694.00;;;;5043383;28;20130;-74
2022/10/23 10:40:00;;;;;;;5.15;1.27;;;21.60;51.80;20.50;100685.00;;;;5073772;28;20028;-74
2022/10/23 10:42:57;;;;;;;2.50;0.90;;;21.50;51.70;20.50;100668.00;;;;5046318;28;20032;-71
2022/10/23 10:45:36;;;;;;;2.88;0.95;;;21.50;51.70;20.60;100677.00;;;;5094915;28;20027;-71
2022/10/23 10:48:17;;;;;;;3.42;1.30;;;21.60;51.80;20.60;100678.00;;;;5072337;28;20103;-71
2022/10/23 10:50:46;;;;;;;4.03;1.00;;;21.50;51.80;20.60;100659.00;;;;5087653;28;20081;-71
2022/10/23 10:53:27;;;;;;;3.03;1.00;;;21.50;51.80;20.60;100656.00;;;;5055646;28;20436;-71
2022/10/23 10:55:54;;;;;;;4.38;1.13;;;21.50;51.80;20.60;100654.00;;;;5057811;28;20595;-71
2022/10/23 10:58:35;;;;;;;4.13;0.98;;;21.50;51.80;20.60;100658.00;;;;5071983;28;20089;-71
2022/10/23 11:01:05;;;;;;;1.77;0.80;;;21.50;51.80;20.60;100646.00;;;;5087562;28;20036;-71
2022/10/23 11:03:46;;;;;;;4.10;1.02;;;21.60;51.90;20.60;100653.00;;;;5071869;28;20056;-71
2022/10/23 11:06:15;;;;;;;3.75;0.95;;;21.60;51.90;20.60;100640.00;;;;5072534;28;20037;-71
2022/10/23 11:08:40;;;;;;;3.08;1.20;;;21.60;51.80;20.60;100637.00;;;;5057330;28;20031;-71